EDDK/CGN METAR and TAF weather

Enter ICAO airport designator
Station Type Date Time Source
EDDK METAR 2018/12/12 04:50 UTC NOAA

EDDK 120450Z 04002KT 9000 FEW022 02/01 Q1024 NOSIG


Station Type Date Time Source
EDDK Decoded METAR 2018/12/12 04:50 UTC NOAA

Koeln / Bonn, Germany (EDDK) 50-52N 007-10E 100M
Dec 11, 2018 - 11:50 PM EST / 2018.12.12 0450 UTC
Wind: from the NE (040 degrees) at 2 MPH (2 KT):0
Visibility: 5 mile(s):0
Sky conditions: mostly clear
Temperature: 35 F (2 C)
Dew Point: 33 F (1 C)
Relative Humidity: 93%
Pressure (altimeter): 30.24 in. Hg (1024 hPa)
ob: EDDK 120450Z 04002KT 9000 FEW022 02/01 Q1024 NOSIG
cycle: 5

Station Type Date Time Source
EDDK TAF 2018/12/11 18:27 UTC NOAA

TAF EDDK 111700Z 1118/1224 VRB02KT 9999 BKN030
BECMG 1206/1208 3500 BR
BECMG 1209/1211 08005KT 8000


Example: see airport list